Time;durP1;ratioP1;P1;durP2;ratioP2;P2;SDS_P1;SDS_P2;PMS_P1;PMS_P2;Temp;Humidity;BMP_temperature;BMP_pressure;BME280_temperature;BME280_humidity;BME280_pressure;Samples;Min_cycle;Max_cycle;Signal;HPM_P1;HPM_P2
2022/07/26 00:02:07;;;;;;;10.83;9.83;;;18.40;99.90;;;;;;5036243;28;20469;-67
2022/07/26 00:04:34;;;;;;;11.17;9.73;;;18.40;99.90;;;;;;5037074;28;20962;-67
2022/07/26 00:07:01;;;;;;;10.63;9.83;;;18.30;99.90;;;;;;5039609;28;20478;-66
2022/07/26 00:09:29;;;;;;;11.43;10.40;;;18.30;99.90;;;;;;5041117;28;20463;-67
2022/07/26 00:11:57;;;;;;;11.90;10.80;;;18.30;99.90;;;;;;5037716;28;20459;-66
2022/07/26 00:14:24;;;;;;;10.20;9.53;;;18.20;99.90;;;;;;5038464;28;20460;-67
2022/07/26 00:16:51;;;;;;;10.00;9.40;;;18.30;99.90;;;;;;5041230;28;20495;-66
2022/07/26 00:19:19;;;;;;;10.93;10.00;;;18.30;99.90;;;;;;5037699;28;20456;-66
2022/07/26 00:21:46;;;;;;;11.00;10.03;;;18.30;99.90;;;;;;5038732;28;20483;-66
2022/07/26 00:24:13;;;;;;;11.30;10.37;;;18.30;99.90;;;;;;5042993;28;20461;-67
2022/07/26 00:26:40;;;;;;;11.10;10.30;;;18.30;99.90;;;;;;5042413;28;20472;-66
2022/07/26 00:29:07;;;;;;;11.30;9.30;;;18.20;99.90;;;;;;5038813;28;20467;-66
2022/07/26 00:31:34;;;;;;;10.50;9.50;;;18.20;99.90;;;;;;5037804;28;20476;-67
2022/07/26 00:34:01;;;;;;;9.80;9.30;;;18.20;99.90;;;;;;5039316;28;20456;-66
2022/07/26 00:36:29;;;;;;;10.47;9.50;;;18.10;99.90;;;;;;5037682;28;21547;-66
2022/07/26 00:38:56;;;;;;;10.10;9.33;;;18.00;99.90;;;;;;5040614;28;20993;-66
2022/07/26 00:41:23;;;;;;;10.20;9.40;;;18.00;99.90;;;;;;5037962;28;20475;-66
2022/07/26 00:43:57;;;;;;;11.37;10.53;;;17.90;99.90;;;;;;5041109;28;20479;-66
2022/07/26 00:46:24;;;;;;;11.53;10.70;;;17.80;99.90;;;;;;5038230;28;20457;-66
2022/07/26 00:48:52;;;;;;;12.20;10.50;;;17.80;99.90;;;;;;5037805;28;21131;-66
2022/07/26 00:51:20;;;;;;;9.60;9.00;;;17.80;99.90;;;;;;5042905;28;20475;-67
2022/07/26 00:53:50;;;;;;;11.80;10.50;;;17.80;99.90;;;;;;5041224;28;20516;-67
2022/07/26 00:56:18;;;;;;;11.03;9.83;;;17.70;99.90;;;;;;5038230;28;20480;-67
2022/07/26 00:58:45;;;;;;;10.00;9.40;;;17.70;99.90;;;;;;5040265;28;20542;-66
2022/07/26 01:01:12;;;;;;;11.03;9.90;;;17.60;99.90;;;;;;5035485;28;20473;-66
2022/07/26 01:03:41;;;;;;;11.23;10.53;;;17.50;99.90;;;;;;5040435;28;20467;-66
2022/07/26 01:06:08;;;;;;;10.00;9.30;;;17.50;99.90;;;;;;5042177;28;20955;-66
2022/07/26 01:08:37;;;;;;;9.73;9.03;;;17.40;99.90;;;;;;5032670;28;20969;-66
2022/07/26 01:11:06;;;;;;;9.77;9.07;;;17.40;99.90;;;;;;5040360;28;20984;-66
2022/07/26 01:13:34;;;;;;;10.20;9.40;;;17.40;99.90;;;;;;5037566;28;20468;-66
2022/07/26 01:16:01;;;;;;;9.83;9.00;;;17.30;99.90;;;;;;5039470;28;20490;-67
2022/07/26 01:18:29;;;;;;;10.00;9.13;;;17.30;99.90;;;;;;5032922;28;20468;-66
2022/07/26 01:20:58;;;;;;;9.60;8.90;;;17.30;99.90;;;;;;5041153;28;20464;-66
2022/07/26 01:23:27;;;;;;;9.00;8.50;;;17.30;99.90;;;;;;5045417;28;20479;-66
2022/07/26 01:25:54;;;;;;;10.73;9.70;;;17.30;99.90;;;;;;5044351;28;20478;-66
2022/07/26 01:28:21;;;;;;;9.80;8.93;;;17.30;99.90;;;;;;5042333;28;20486;-66
2022/07/26 01:30:49;;;;;;;9.90;9.10;;;17.20;99.90;;;;;;5045083;28;20468;-67
2022/07/26 01:33:16;;;;;;;10.87;9.77;;;17.20;99.90;;;;;;5046700;28;20459;-66
2022/07/26 01:35:45;;;;;;;10.07;9.37;;;17.20;99.90;;;;;;5044592;28;20904;-67
2022/07/26 01:38:12;;;;;;;9.97;9.20;;;17.10;99.90;;;;;;5042713;28;20488;-66
2022/07/26 01:40:40;;;;;;;15.73;8.90;;;17.00;99.90;;;;;;5039905;28;20563;-66
2022/07/26 01:43:07;;;;;;;9.80;8.90;;;16.90;99.90;;;;;;5040565;28;20466;-66
2022/07/26 01:45:35;;;;;;;9.90;9.10;;;17.00;99.90;;;;;;5040606;28;20460;-66
2022/07/26 01:48:02;;;;;;;10.20;9.30;;;16.90;99.90;;;;;;5037779;28;20475;-66
2022/07/26 01:50:29;;;;;;;9.97;9.23;;;16.80;99.90;;;;;;5048719;28;20458;-67
2022/07/26 01:52:56;;;;;;;9.83;9.03;;;16.90;99.90;;;;;;5042974;28;20460;-66
2022/07/26 01:55:23;;;;;;;9.63;8.93;;;17.00;99.90;;;;;;5042045;28;20986;-66
2022/07/26 01:57:51;;;;;;;8.90;8.30;;;17.20;99.90;;;;;;5045962;28;20490;-66
2022/07/26 02:00:19;;;;;;;9.37;8.63;;;17.20;99.90;;;;;;5047189;28;20467;-66
2022/07/26 02:02:45;;;;;;;14.70;8.83;;;17.30;99.90;;;;;;5044070;28;20946;-65
2022/07/26 02:05:13;;;;;;;9.10;8.37;;;17.30;99.90;;;;;;5041725;28;20471;-66
2022/07/26 02:07:42;;;;;;;10.03;8.73;;;17.30;99.90;;;;;;5041669;28;20463;-67
2022/07/26 02:10:11;;;;;;;10.07;9.13;;;17.40;99.90;;;;;;5042016;28;20509;-66
2022/07/26 02:12:38;;;;;;;10.60;9.67;;;17.30;99.90;;;;;;5047081;28;20461;-66
2022/07/26 02:15:09;;;;;;;9.67;8.73;;;17.40;99.90;;;;;;5046996;28;20487;-66
2022/07/26 02:17:36;;;;;;;9.37;8.70;;;17.50;99.90;;;;;;5036303;28;20484;-66
2022/07/26 02:20:03;;;;;;;10.60;9.27;;;17.60;99.90;;;;;;5044909;28;20475;-67
2022/07/26 02:22:31;;;;;;;10.37;9.43;;;17.60;99.90;;;;;;5040964;28;20455;-66
2022/07/26 02:24:58;;;;;;;10.13;9.17;;;17.60;99.90;;;;;;5043300;28;20885;-65
2022/07/26 02:27:25;;;;;;;10.07;9.40;;;17.70;99.90;;;;;;5040555;28;20535;-67
2022/07/26 02:29:51;;;;;;;10.37;9.50;;;17.70;99.90;;;;;;5044552;28;20570;-67
2022/07/26 02:32:20;;;;;;;10.77;9.70;;;17.80;99.90;;;;;;5039159;28;20467;-66
2022/07/26 02:34:47;;;;;;;10.57;9.33;;;17.90;99.90;;;;;;5041615;28;20455;-66
2022/07/26 02:37:13;;;;;;;9.97;9.03;;;17.80;99.90;;;;;;5041491;28;20499;-66
2022/07/26 02:39:40;;;;;;;10.40;9.40;;;17.70;99.90;;;;;;5042679;28;20480;-66
2022/07/26 02:42:07;;;;;;;11.03;9.90;;;17.60;99.90;;;;;;5039609;28;20460;-66
2022/07/26 02:44:35;;;;;;;11.30;10.30;;;17.50;99.90;;;;;;5039410;28;20480;-66
2022/07/26 02:47:02;;;;;;;10.27;9.30;;;17.40;99.90;;;;;;5038347;28;20487;-66
2022/07/26 02:49:31;;;;;;;11.77;9.50;;;17.40;99.90;;;;;;5041842;28;20470;-66
2022/07/26 02:51:58;;;;;;;10.20;9.50;;;17.20;99.90;;;;;;5041439;28;20487;-66
2022/07/26 02:54:24;;;;;;;9.40;8.70;;;17.30;99.90;;;;;;5042407;28;21087;-66
2022/07/26 02:56:52;;;;;;;10.10;9.07;;;17.30;99.90;;;;;;5039036;28;20521;-66
2022/07/26 02:59:19;;;;;;;9.83;8.83;;;17.40;99.90;;;;;;5034387;28;20839;-66
2022/07/26 03:01:46;;;;;;;9.90;8.97;;;17.40;99.90;;;;;;5035074;28;20452;-67
2022/07/26 03:04:13;;;;;;;12.73;10.00;;;17.40;99.90;;;;;;5040677;28;20479;-66
2022/07/26 03:06:42;;;;;;;12.23;9.80;;;17.60;99.90;;;;;;5041800;28;20465;-66
2022/07/26 03:09:09;;;;;;;10.23;9.20;;;17.60;99.90;;;;;;5041161;28;21204;-66
2022/07/26 03:11:36;;;;;;;11.50;9.83;;;17.50;99.90;;;;;;5035895;28;20460;-66
2022/07/26 03:14:04;;;;;;;13.07;8.97;;;17.40;99.90;;;;;;5035254;28;20460;-66
2022/07/26 03:16:30;;;;;;;20.73;9.83;;;17.30;99.90;;;;;;4491609;28;15070509;-68
2022/07/26 03:18:58;;;;;;;16.80;10.30;;;17.30;99.90;;;;;;5042981;28;20201;-68
2022/07/26 03:21:25;;;;;;;10.10;9.33;;;17.20;99.90;;;;;;5039035;28;20502;-68
2022/07/26 03:23:53;;;;;;;10.33;9.60;;;17.20;99.90;;;;;;5037997;28;20524;-68
2022/07/26 03:26:21;;;;;;;10.57;9.47;;;17.20;99.90;;;;;;5039436;28;20468;-68
2022/07/26 03:28:48;;;;;;;11.33;8.70;;;17.30;99.90;;;;;;5041222;28;20471;-68
2022/07/26 03:31:16;;;;;;;12.27;9.27;;;17.30;99.90;;;;;;5036943;28;20473;-68
2022/07/26 03:33:43;;;;;;;10.43;9.43;;;17.30;99.90;;;;;;5043691;28;20468;-68
2022/07/26 03:36:10;;;;;;;10.30;9.50;;;17.30;99.90;;;;;;5042313;28;20471;-67
2022/07/26 03:38:37;;;;;;;9.37;8.33;;;17.30;99.90;;;;;;5041356;28;20571;-68
2022/07/26 03:41:06;;;;;;;13.63;9.93;;;17.30;99.90;;;;;;5040993;28;20456;-68
2022/07/26 03:43:33;;;;;;;10.13;9.27;;;17.40;99.90;;;;;;5045382;28;20475;-68
2022/07/26 03:46:00;;;;;;;19.37;9.97;;;17.40;99.90;;;;;;5042759;28;20780;-68
2022/07/26 03:48:27;;;;;;;9.43;8.40;;;17.40;99.90;;;;;;5042455;28;20463;-68
2022/07/26 03:50:55;;;;;;;9.83;9.00;;;17.40;99.90;;;;;;5037821;28;20963;-69
2022/07/26 03:53:22;;;;;;;9.80;8.80;;;17.40;99.90;;;;;;5042272;28;20460;-68
2022/07/26 03:58:35;;;;;;;10.13;9.10;;;17.40;99.90;;;;;;5032705;28;20490;-66
2022/07/26 04:01:02;;;;;;;9.60;8.70;;;17.40;99.90;;;;;;5039701;28;21195;-66
2022/07/26 04:03:29;;;;;;;12.93;9.77;;;17.40;99.90;;;;;;5015116;28;20475;-66
2022/07/26 04:05:56;;;;;;;13.33;9.40;;;17.50;99.90;;;;;;5017395;28;20952;-66
2022/07/26 04:08:23;;;;;;;12.67;8.63;;;17.50;99.90;;;;;;5015298;28;21000;-66
2022/07/26 04:10:51;;;;;;;13.10;9.20;;;17.50;99.90;;;;;;5017911;28;20464;-66
2022/07/26 04:13:17;;;;;;;12.13;9.17;;;17.50;99.90;;;;;;5033706;28;20467;-66
2022/07/26 04:15:47;;;;;;;16.70;9.23;;;17.50;99.90;;;;;;5041275;28;20488;-66
2022/07/26 04:18:15;;;;;;;10.10;9.03;;;17.60;99.90;;;;;;5038565;28;20491;-66
2022/07/26 04:20:42;;;;;;;9.60;8.80;;;17.70;99.90;;;;;;5019482;28;20460;-66
2022/07/26 04:23:09;;;;;;;12.40;10.00;;;17.60;99.90;;;;;;5015350;28;20472;-67
2022/07/26 04:25:36;;;;;;;14.20;9.30;;;17.70;99.90;;;;;;5016080;28;20459;-68
2022/07/26 04:28:04;;;;;;;13.57;10.30;;;17.80;99.90;;;;;;5013462;28;20456;-69
2022/07/26 04:30:31;;;;;;;13.43;9.67;;;17.80;99.90;;;;;;5012755;28;20456;-69
2022/07/26 04:32:59;;;;;;;10.27;9.37;;;17.60;99.90;;;;;;5014303;28;20468;-68
2022/07/26 04:35:26;;;;;;;19.33;10.50;;;17.70;99.90;;;;;;5011990;28;20468;-68
2022/07/26 04:37:53;;;;;;;21.47;10.70;;;17.70;99.90;;;;;;5016018;28;20500;-68
2022/07/26 04:40:22;;;;;;;16.23;11.00;;;17.70;99.90;;;;;;5015034;28;21078;-68
2022/07/26 04:42:49;;;;;;;11.27;9.40;;;17.60;99.90;;;;;;5014770;28;21326;-69
2022/07/26 04:45:17;;;;;;;18.33;10.37;;;17.60;99.90;;;;;;5009477;28;21258;-69
2022/07/26 04:47:45;;;;;;;12.00;9.90;;;17.70;99.90;;;;;;5009729;28;21209;-69
2022/07/26 04:50:13;;;;;;;12.03;9.77;;;17.90;99.90;;;;;;5009461;28;20452;-69
2022/07/26 04:52:40;;;;;;;13.33;10.60;;;17.90;99.90;;;;;;5010493;28;20519;-68
2022/07/26 04:55:09;;;;;;;17.73;9.90;;;17.80;99.90;;;;;;5009986;28;20471;-68
2022/07/26 04:57:36;;;;;;;14.43;10.10;;;17.90;99.90;;;;;;5008934;28;21360;-68
2022/07/26 05:00:06;;;;;;;12.90;11.00;;;17.90;99.90;;;;;;5010617;28;21105;-68
2022/07/26 05:02:33;;;;;;;15.00;10.80;;;18.10;99.90;;;;;;5010328;28;20474;-68
2022/07/26 05:04:59;;;;;;;18.23;10.37;;;18.10;99.90;;;;;;5008478;28;20486;-68
2022/07/26 05:07:28;;;;;;;20.77;10.50;;;18.20;99.90;;;;;;5011495;28;21079;-70
2022/07/26 05:09:55;;;;;;;16.83;11.43;;;18.20;99.90;;;;;;5009705;28;21067;-68
2022/07/26 05:12:22;;;;;;;13.33;11.00;;;18.20;99.90;;;;;;5009177;28;20479;-68
2022/07/26 05:14:49;;;;;;;17.80;10.77;;;18.20;99.90;;;;;;5006698;28;20483;-68
2022/07/26 05:17:16;;;;;;;14.20;10.67;;;18.30;99.90;;;;;;5008739;28;20546;-69
2022/07/26 05:19:42;;;;;;;14.20;10.40;;;18.20;99.90;;;;;;5009728;28;20471;-69
2022/07/26 05:22:09;;;;;;;13.13;10.10;;;18.20;99.90;;;;;;5009210;28;20994;-69
2022/07/26 05:24:37;;;;;;;18.63;11.40;;;18.30;99.90;;;;;;5008764;28;20469;-69
2022/07/26 05:27:04;;;;;;;15.43;9.90;;;18.40;99.90;;;;;;5010443;28;20475;-68
2022/07/26 05:29:31;;;;;;;11.20;10.00;;;18.40;99.90;;;;;;5008769;28;20464;-69
2022/07/26 05:31:58;;;;;;;14.60;10.47;;;18.40;99.90;;;;;;5010709;28;20472;-69
2022/07/26 05:34:25;;;;;;;15.63;11.47;;;18.40;99.90;;;;;;5010034;28;20477;-68
2022/07/26 05:36:52;;;;;;;12.03;10.90;;;18.40;99.90;;;;;;5009808;28;20468;-68
2022/07/26 05:39:19;;;;;;;17.37;10.90;;;18.50;99.90;;;;;;5011650;28;20519;-68
2022/07/26 05:41:47;;;;;;;12.17;10.87;;;18.50;99.90;;;;;;5011849;28;21019;-68
2022/07/26 05:44:14;;;;;;;15.33;11.37;;;18.60;99.90;;;;;;5012144;28;20471;-69
2022/07/26 05:46:41;;;;;;;17.30;11.30;;;18.60;99.90;;;;;;5010874;28;20533;-69
2022/07/26 05:49:08;;;;;;;15.67;10.90;;;18.50;99.90;;;;;;5010086;28;20460;-68
2022/07/26 05:51:35;;;;;;;13.43;10.87;;;18.50;99.90;;;;;;5012965;28;20471;-68
2022/07/26 05:54:02;;;;;;;12.57;10.83;;;18.60;99.90;;;;;;5028401;28;20557;-68
2022/07/26 05:56:30;;;;;;;15.83;10.40;;;18.60;99.90;;;;;;5028688;28;20498;-68
2022/07/26 05:58:58;;;;;;;23.00;10.80;;;18.60;99.90;;;;;;5020875;28;20572;-69
2022/07/26 06:01:25;;;;;;;17.83;11.63;;;18.60;99.90;;;;;;5012087;28;21026;-68
2022/07/26 06:03:52;;;;;;;12.93;10.87;;;18.80;99.90;;;;;;5006649;28;20460;-68
2022/07/26 06:06:19;;;;;;;16.57;11.30;;;18.70;99.90;;;;;;5008260;28;20464;-68
2022/07/26 06:08:45;;;;;;;12.13;10.87;;;18.50;99.90;;;;;;5010108;28;20504;-69
2022/07/26 06:11:13;;;;;;;18.23;11.27;;;18.60;99.90;;;;;;5010109;28;20506;-69
2022/07/26 06:13:40;;;;;;;25.43;11.70;;;18.60;99.90;;;;;;5011080;28;20968;-68
2022/07/26 06:16:08;;;;;;;18.57;11.43;;;18.60;99.90;;;;;;5010917;28;21056;-68
2022/07/26 06:18:35;;;;;;;12.27;11.03;;;18.60;99.90;;;;;;5006567;28;21036;-68
2022/07/26 06:21:02;;;;;;;18.37;11.27;;;18.70;99.90;;;;;;5013013;28;20974;-69
2022/07/26 06:23:29;;;;;;;13.50;10.20;;;18.90;99.90;;;;;;5013369;28;20479;-69
2022/07/26 06:25:56;;;;;;;16.30;11.90;;;19.00;99.90;;;;;;5012625;28;20622;-69
2022/07/26 06:28:23;;;;;;;13.13;11.77;;;19.10;99.90;;;;;;5013955;28;20558;-69
2022/07/26 06:30:50;;;;;;;18.60;12.10;;;19.10;99.90;;;;;;5012661;28;20475;-68
2022/07/26 06:33:19;;;;;;;12.83;11.40;;;19.10;99.90;;;;;;5015370;28;20456;-69
2022/07/26 06:35:46;;;;;;;20.50;12.63;;;19.20;99.90;;;;;;5017678;28;20460;-68
2022/07/26 06:38:13;;;;;;;18.47;12.63;;;19.30;99.90;;;;;;5016947;28;21025;-68
2022/07/26 06:40:40;;;;;;;20.17;13.60;;;19.50;99.90;;;;;;5016602;28;20491;-69
2022/07/26 06:43:07;;;;;;;24.97;13.90;;;19.30;99.90;;;;;;5017394;28;20471;-68
2022/07/26 06:45:34;;;;;;;18.03;13.03;;;19.40;99.90;;;;;;5017308;28;20475;-69
2022/07/26 06:48:00;;;;;;;18.33;14.23;;;19.50;99.90;;;;;;5017405;28;20472;-68
2022/07/26 06:50:29;;;;;;;19.13;13.13;;;19.50;99.90;;;;;;5016616;28;20846;-68
2022/07/26 06:52:56;;;;;;;16.73;13.60;;;19.40;99.90;;;;;;5016628;28;20465;-68
2022/07/26 06:55:23;;;;;;;14.07;12.67;;;19.30;99.90;;;;;;5016366;28;20482;-68
2022/07/26 06:57:49;;;;;;;17.83;12.60;;;19.30;99.90;;;;;;5018337;28;20564;-68
2022/07/26 07:00:17;;;;;;;16.90;13.93;;;19.50;99.90;;;;;;5016343;28;20468;-68
2022/07/26 07:02:44;;;;;;;14.83;13.33;;;19.60;99.90;;;;;;5016845;28;20468;-69
2022/07/26 07:05:12;;;;;;;15.70;13.57;;;19.70;99.90;;;;;;5016953;28;20460;-69
2022/07/26 07:07:40;;;;;;;20.33;14.40;;;19.80;99.90;;;;;;5016052;28;20514;-68
2022/07/26 07:10:08;;;;;;;20.17;14.87;;;19.80;99.90;;;;;;5015973;28;20839;-68
2022/07/26 07:12:34;;;;;;;21.87;15.57;;;19.90;99.90;;;;;;5017431;28;20479;-69
2022/07/26 07:15:01;;;;;;;18.13;14.17;;;19.80;99.90;;;;;;5016466;28;21026;-69
2022/07/26 07:17:28;;;;;;;20.30;16.20;;;20.00;99.90;;;;;;5016515;28;20910;-69
2022/07/26 07:19:55;;;;;;;17.20;15.37;;;20.10;99.90;;;;;;5014981;28;20495;-68
2022/07/26 07:22:22;;;;;;;20.30;16.40;;;20.10;99.90;;;;;;5017111;28;20469;-68
2022/07/26 07:24:50;;;;;;;17.60;15.47;;;20.20;99.90;;;;;;5016030;28;20460;-68
2022/07/26 07:27:17;;;;;;;21.40;16.23;;;20.20;99.90;;;;;;5016639;28;21069;-69
2022/07/26 07:29:44;;;;;;;16.83;15.13;;;20.30;99.90;;;;;;5016494;28;20475;-68
2022/07/26 07:32:11;;;;;;;19.20;16.97;;;20.30;99.90;;;;;;5014963;28;20511;-69
2022/07/26 07:34:38;;;;;;;19.17;16.60;;;20.70;99.90;;;;;;5016329;28;20467;-69
2022/07/26 07:37:05;;;;;;;20.30;18.10;;;20.70;99.90;;;;;;5015701;28;20471;-69
2022/07/26 07:39:32;;;;;;;18.10;16.47;;;20.80;99.90;;;;;;5014870;28;20493;-68
2022/07/26 07:42:00;;;;;;;19.17;17.20;;;20.70;99.90;;;;;;5016123;28;20513;-69
2022/07/26 07:44:27;;;;;;;18.03;16.00;;;20.60;99.90;;;;;;5014916;28;20488;-69
2022/07/26 07:46:54;;;;;;;22.53;16.63;;;20.70;99.90;;;;;;5029902;28;20463;-69
2022/07/26 07:49:21;;;;;;;17.87;15.57;;;20.90;99.90;;;;;;5039558;28;20660;-69
2022/07/26 07:51:48;;;;;;;26.67;16.63;;;21.10;99.90;;;;;;5040651;28;20561;-69
2022/07/26 07:54:17;;;;;;;17.80;16.30;;;21.10;99.90;;;;;;5015193;28;20461;-69
2022/07/26 07:56:44;;;;;;;18.90;16.83;;;21.30;99.90;;;;;;5016224;28;20464;-69
2022/07/26 07:59:12;;;;;;;20.43;18.30;;;21.40;99.90;;;;;;5015436;28;20567;-69
2022/07/26 08:01:40;;;;;;;18.30;16.70;;;21.60;99.90;;;;;;5021511;28;21179;-69
2022/07/26 08:04:07;;;;;;;18.37;16.57;;;21.60;99.90;;;;;;5015309;28;20544;-69
2022/07/26 08:06:34;;;;;;;18.37;16.50;;;21.90;99.90;;;;;;5014166;28;22520;-69
2022/07/26 08:09:00;;;;;;;18.47;16.53;;;22.10;99.90;;;;;;5012424;28;20460;-66
2022/07/26 08:11:27;;;;;;;17.63;16.33;;;22.40;99.90;;;;;;5015215;28;20472;-67
2022/07/26 08:13:54;;;;;;;19.07;16.60;;;22.60;99.90;;;;;;5014617;28;20983;-66
2022/07/26 08:16:22;;;;;;;18.57;16.80;;;22.80;99.90;;;;;;5015635;28;20484;-66
2022/07/26 08:18:49;;;;;;;17.90;16.17;;;22.90;99.90;;;;;;5015098;28;21049;-66
2022/07/26 08:21:18;;;;;;;18.20;16.70;;;23.10;99.90;;;;;;5014414;28;20464;-66
2022/07/26 08:23:45;;;;;;;18.47;16.83;;;23.00;99.90;;;;;;5015604;28;20583;-67
2022/07/26 08:26:12;;;;;;;19.17;17.33;;;23.00;99.90;;;;;;5015171;28;20958;-68
2022/07/26 08:28:39;;;;;;;18.93;17.30;;;23.00;99.90;;;;;;5015367;28;20905;-69
2022/07/26 08:31:07;;;;;;;20.27;17.10;;;23.20;99.90;;;;;;5015070;28;20963;-68
2022/07/26 08:33:35;;;;;;;18.27;16.67;;;23.50;99.90;;;;;;5014137;28;20480;-68
2022/07/26 08:36:02;;;;;;;19.43;16.60;;;23.70;99.90;;;;;;5015262;28;20465;-68
2022/07/26 08:38:29;;;;;;;18.47;16.87;;;23.40;99.90;;;;;;5014783;28;20484;-69
2022/07/26 08:40:56;;;;;;;18.30;17.00;;;23.40;99.90;;;;;;5014626;28;20492;-68
2022/07/26 08:43:23;;;;;;;18.13;16.43;;;23.60;99.90;;;;;;5014327;28;20552;-69
2022/07/26 08:45:50;;;;;;;18.30;16.40;;;24.00;99.90;;;;;;5014620;28;20489;-69
2022/07/26 08:48:17;;;;;;;16.67;15.30;;;23.50;99.90;;;;;;5014434;28;20453;-70
2022/07/26 08:50:45;;;;;;;17.70;16.23;;;23.70;99.90;;;;;;5014498;28;20850;-69
2022/07/26 08:53:13;;;;;;;18.60;16.67;;;24.20;99.90;;;;;;5014682;28;20473;-69
2022/07/26 08:55:39;;;;;;;17.33;15.80;;;24.70;99.90;;;;;;5015396;28;22099;-68
2022/07/26 08:58:06;;;;;;;16.13;14.97;;;24.50;99.90;;;;;;5014225;28;21251;-68
2022/07/26 09:00:33;;;;;;;18.40;14.97;;;24.10;99.90;;;;;;5013833;28;20500;-68
2022/07/26 09:03:02;;;;;;;16.77;15.13;;;24.10;99.90;;;;;;5041622;28;20455;-68
2022/07/26 09:05:30;;;;;;;16.40;15.17;;;24.00;99.90;;;;;;5019844;28;20491;-68
2022/07/26 09:07:59;;;;;;;16.30;15.13;;;23.80;99.90;;;;;;5014131;28;20467;-69
2022/07/26 09:10:27;;;;;;;16.23;14.73;;;24.40;99.90;;;;;;5014305;28;20964;-69
2022/07/26 09:12:55;;;;;;;16.40;15.30;;;25.10;99.90;;;;;;5014635;28;20562;-69
2022/07/26 09:15:24;;;;;;;16.60;14.97;;;25.30;99.90;;;;;;5014828;28;20884;-69
2022/07/26 09:17:53;;;;;;;17.97;16.07;;;25.00;99.90;;;;;;5015168;28;20472;-69
2022/07/26 09:20:22;;;;;;;18.73;16.10;;;25.50;99.90;;;;;;5014872;28;20940;-69
2022/07/26 09:23:05;;;;;;;15.53;14.07;;;25.90;99.90;;;;;;5014594;28;20464;-68
2022/07/26 09:25:34;;;;;;;16.33;15.00;;;26.40;99.90;;;;;;5014536;28;20474;-69
2022/07/26 09:28:02;;;;;;;16.50;15.30;;;27.10;99.90;;;;;;5014415;28;20464;-69
2022/07/26 09:30:30;;;;;;;17.00;15.67;;;26.90;99.90;;;;;;5013703;28;20476;-70
2022/07/26 09:33:01;;;;;;;16.83;15.43;;;26.40;99.90;;;;;;5014062;28;20468;-68
2022/07/26 09:35:28;;;;;;;16.23;14.93;;;25.60;99.90;;;;;;5014483;28;20464;-68
2022/07/26 09:37:56;;;;;;;21.63;16.07;;;25.60;99.90;;;;;;5013830;28;20484;-69
2022/07/26 09:40:32;;;;;;;16.33;15.03;;;26.10;99.90;;;;;;5014045;28;20505;-69
2022/07/26 09:43:01;;;;;;;16.47;15.30;;;26.50;99.90;;;;;;5014655;28;20451;-69
2022/07/26 09:45:30;;;;;;;17.30;15.60;;;26.80;99.90;;;;;;5018172;28;20972;-68
2022/07/26 09:47:56;;;;;;;16.40;15.00;;;26.70;99.90;;;;;;5018812;28;21090;-69
2022/07/26 09:50:26;;;;;;;16.27;14.70;;;25.90;99.90;;;;;;5018362;28;20480;-69
2022/07/26 09:53:06;;;;;;;16.87;15.20;;;25.40;99.90;;;;;;5017956;28;20603;-69
2022/07/26 09:55:36;;;;;;;17.00;15.63;;;24.90;99.90;;;;;;5019260;28;20600;-68
2022/07/26 09:58:05;;;;;;;16.70;15.30;;;24.30;99.90;;;;;;5017673;28;20463;-68
2022/07/26 10:00:33;;;;;;;16.70;15.23;;;24.30;99.90;;;;;;5022985;28;20492;-69
2022/07/26 10:03:00;;;;;;;16.90;15.50;;;23.90;99.90;;;;;;5017377;28;21174;-69
2022/07/26 10:05:27;;;;;;;16.73;15.63;;;23.80;99.90;;;;;;5018688;28;20460;-68
2022/07/26 10:07:58;;;;;;;17.00;15.53;;;23.40;99.90;;;;;;5018522;28;20444;-69
2022/07/26 10:10:28;;;;;;;18.30;15.80;;;23.70;99.90;;;;;;5017262;28;21324;-69
2022/07/26 10:12:58;;;;;;;17.33;15.93;;;24.00;99.90;;;;;;5018005;28;20467;-69
2022/07/26 10:15:41;;;;;;;18.47;16.90;;;24.20;99.90;;;;;;5016942;28;20490;-69
2022/07/26 10:18:09;;;;;;;16.53;15.37;;;24.20;99.90;;;;;;5017656;28;20464;-69
2022/07/26 10:20:41;;;;;;;16.40;15.30;;;24.40;99.90;;;;;;5017762;28;21045;-69
2022/07/26 10:23:41;;;;;;;17.30;15.80;;;25.00;99.90;;;;;;5017851;28;20475;-70
2022/07/26 10:26:10;;;;;;;16.70;14.73;;;25.80;99.90;;;;;;5017761;28;20840;-67
2022/07/26 10:28:40;;;;;;;14.87;13.90;;;25.50;99.90;;;;;;5018068;28;20468;-67
2022/07/26 10:31:30;;;;;;;15.50;14.40;;;25.00;99.90;;;;;;5017949;28;20843;-68
2022/07/26 10:33:58;;;;;;;17.37;15.87;;;24.80;99.90;;;;;;5017799;28;20550;-67
2022/07/26 10:36:34;;;;;;;16.53;15.30;;;24.40;99.90;;;;;;5018469;28;20460;-67
2022/07/26 10:39:03;;;;;;;17.30;16.30;;;24.40;99.90;;;;;;5017586;28;21053;-68
2022/07/26 10:41:33;;;;;;;16.50;15.53;;;24.20;99.90;;;;;;5017119;28;20471;-68
2022/07/26 10:44:24;;;;;;;16.30;15.20;;;24.00;99.90;;;;;;5017843;28;20452;-67
2022/07/26 10:47:03;;;;;;;16.70;15.40;;;23.60;99.90;;;;;;5014492;28;20472;-67
2022/07/26 10:49:33;;;;;;;16.50;15.07;;;23.50;99.90;;;;;;5017198;28;20914;-66
2022/07/26 10:52:12;;;;;;;17.67;16.57;;;23.50;99.90;;;;;;5017630;28;20847;-67
2022/07/26 10:55:07;;;;;;;17.43;16.40;;;23.10;99.90;;;;;;5018068;28;20858;-67
2022/07/26 10:57:35;;;;;;;18.07;16.53;;;23.00;99.90;;;;;;5016184;28;20908;-68
2022/07/26 11:00:18;;;;;;;16.63;15.53;;;22.80;99.90;;;;;;5017702;28;21002;-67
2022/07/26 11:02:49;;;;;;;17.27;16.17;;;22.50;99.90;;;;;;5017905;28;20472;-67
2022/07/26 11:05:17;;;;;;;16.70;15.30;;;22.40;99.90;;;;;;5017470;28;20468;-67
2022/07/26 11:08:03;;;;;;;18.00;16.77;;;22.30;99.90;;;;;;5017059;28;20470;-67
2022/07/26 11:10:32;;;;;;;16.80;15.70;;;22.40;99.90;;;;;;5016631;28;20456;-67
2022/07/26 11:13:15;;;;;;;18.07;16.60;;;22.40;99.90;;;;;;5017332;28;20831;-67
2022/07/26 11:15:45;;;;;;;17.27;15.97;;;22.80;99.90;;;;;;5015725;28;20483;-67
2022/07/26 11:18:22;;;;;;;17.07;16.17;;;23.30;99.90;;;;;;5015473;28;20963;-69
2022/07/26 11:20:52;;;;;;;18.10;16.87;;;24.00;99.90;;;;;;5016345;28;21458;-68
2022/07/26 11:23:33;;;;;;;18.50;16.90;;;24.70;99.90;;;;;;5016109;28;21062;-68
2022/07/26 11:26:09;;;;;;;16.07;15.20;;;25.40;99.90;;;;;;5016588;28;22374;-69
2022/07/26 11:28:50;;;;;;;18.77;17.40;;;25.70;99.90;;;;;;5016414;28;20478;-68
2022/07/26 11:31:19;;;;;;;16.70;15.80;;;26.30;99.90;;;;;;5016056;28;21017;-69
2022/07/26 11:33:49;;;;;;;17.10;16.20;;;26.50;99.90;;;;;;5016045;28;20468;-69
2022/07/26 11:36:18;;;;;;;15.73;15.00;;;26.70;99.90;;;;;;5016266;28;20474;-68
2022/07/26 11:38:50;;;;;;;15.83;14.93;;;26.50;99.90;;;;;;5015989;28;20504;-68
2022/07/26 11:41:21;;;;;;;15.53;14.33;;;25.20;99.90;;;;;;5015628;28;21074;-69
2022/07/26 11:43:48;;;;;;;14.63;14.00;;;24.10;99.90;;;;;;5016609;28;20460;-69
2022/07/26 11:46:15;;;;;;;14.57;13.80;;;23.30;99.90;;;;;;5015481;28;21462;-68
2022/07/26 11:48:47;;;;;;;15.33;14.43;;;22.80;99.90;;;;;;5016367;28;20915;-68
2022/07/26 11:51:16;;;;;;;15.10;14.10;;;22.40;99.90;;;;;;5014833;28;20471;-68
2022/07/26 11:53:44;;;;;;;14.60;13.80;;;22.20;99.90;;;;;;5015144;28;20483;-68
2022/07/26 11:56:16;;;;;;;14.50;13.80;;;21.90;99.90;;;;;;5015925;28;20448;-69
2022/07/26 11:58:44;;;;;;;14.30;13.60;;;21.80;99.90;;;;;;5034446;28;20478;-68
2022/07/26 12:01:13;;;;;;;14.77;14.07;;;21.60;99.90;;;;;;5035578;28;20492;-67
2022/07/26 12:03:43;;;;;;;14.87;13.87;;;21.50;99.90;;;;;;5014730;28;20872;-67
2022/07/26 12:06:15;;;;;;;15.00;14.07;;;21.30;99.90;;;;;;5015353;28;20468;-68
2022/07/26 12:08:43;;;;;;;14.57;13.70;;;21.30;99.90;;;;;;5015250;28;20480;-67
2022/07/26 12:11:10;;;;;;;14.97;14.07;;;21.60;99.90;;;;;;5015273;28;20467;-67
2022/07/26 12:13:55;;;;;;;15.40;14.40;;;21.80;99.90;;;;;;5015704;28;20464;-67
2022/07/26 12:16:42;;;;;;;15.00;13.93;;;22.00;99.90;;;;;;5015169;28;20482;-68
2022/07/26 12:19:21;;;;;;;14.87;14.07;;;22.30;99.90;;;;;;5015505;28;20855;-67
2022/07/26 12:21:51;;;;;;;14.07;13.37;;;22.40;99.90;;;;;;5015144;28;20463;-67
2022/07/26 12:24:34;;;;;;;14.83;13.90;;;22.70;99.90;;;;;;5015412;28;20670;-67
2022/07/26 12:27:06;;;;;;;15.20;14.30;;;23.80;99.90;;;;;;5014803;28;20975;-67
2022/07/26 12:29:35;;;;;;;14.40;13.60;;;25.00;99.90;;;;;;5015102;28;20467;-68
2022/07/26 12:32:11;;;;;;;15.80;14.90;;;26.20;99.90;;;;;;5016210;28;20540;-68
2022/07/26 12:34:39;;;;;;;15.50;14.60;;;26.80;99.90;;;;;;5015325;28;20479;-68
2022/07/26 12:37:09;;;;;;;15.70;14.90;;;27.40;99.90;;;;;;5016629;28;20468;-69
2022/07/26 12:39:37;;;;;;;15.33;14.53;;;27.90;99.90;;;;;;5014449;28;20808;-68
2022/07/26 12:42:24;;;;;;;15.87;14.90;;;28.00;99.90;;;;;;5014151;28;20468;-68